sensor_id;sensor_type;location;lat;lon;timestamp;pressure;altitude;pressure_sealevel;temperature;humidity
49104;BME280;34915;52.926;11.116;2022-07-23T00:01:29;101641.84;;;16.23;88.88
49104;BME280;34915;52.926;11.116;2022-07-23T00:03:56;101650.00;;;16.32;89.46
49104;BME280;34915;52.926;11.116;2022-07-23T00:06:22;101641.84;;;16.23;88.83
49104;BME280;34915;52.926;11.116;2022-07-23T00:08:48;101645.94;;;16.16;90.19
49104;BME280;34915;52.926;11.116;2022-07-23T00:11:15;101637.69;;;16.08;89.58
49104;BME280;34915;52.926;11.116;2022-07-23T00:13:40;101643.28;;;16.05;90.80
49104;BME280;34915;52.926;11.116;2022-07-23T00:16:06;101647.38;;;15.98;90.45
49104;BME280;34915;52.926;11.116;2022-07-23T00:18:32;101654.69;;;15.96;90.86
49104;BME280;34915;52.926;11.116;2022-07-23T00:20:58;101651.25;;;15.94;91.53
49104;BME280;34915;52.926;11.116;2022-07-23T00:23:23;101646.16;;;15.91;90.80
49104;BME280;34915;52.926;11.116;2022-07-23T00:25:51;101641.06;;;15.88;91.71
49104;BME280;34915;52.926;11.116;2022-07-23T00:28:17;101617.00;;;15.77;92.71
49104;BME280;34915;52.926;11.116;2022-07-23T00:30:44;101637.44;;;15.89;92.70
49104;BME280;34915;52.926;11.116;2022-07-23T00:33:10;101647.63;;;15.95;91.93
49104;BME280;34915;52.926;11.116;2022-07-23T00:35:39;101635.72;;;15.88;91.08
49104;BME280;34915;52.926;11.116;2022-07-23T00:38:07;101647.47;;;15.86;91.61
49104;BME280;34915;52.926;11.116;2022-07-23T00:40:33;101644.72;;;15.87;90.67
49104;BME280;34915;52.926;11.116;2022-07-23T00:42:59;101643.00;;;15.86;91.01
49104;BME280;34915;52.926;11.116;2022-07-23T00:45:25;101649.06;;;15.88;91.63
49104;BME280;34915;52.926;11.116;2022-07-23T00:47:51;101641.28;;;15.85;91.27
49104;BME280;34915;52.926;11.116;2022-07-23T00:50:17;101651.75;;;15.88;91.39
49104;BME280;34915;52.926;11.116;2022-07-23T00:52:43;101663.16;;;15.79;91.35
49104;BME280;34915;52.926;11.116;2022-07-23T00:55:11;101664.16;;;15.89;93.34
49104;BME280;34915;52.926;11.116;2022-07-23T00:57:38;101658.56;;;15.92;92.83
49104;BME280;34915;52.926;11.116;2022-07-23T01:00:06;101654.69;;;15.96;92.35
49104;BME280;34915;52.926;11.116;2022-07-23T01:02:33;101640.47;;;15.85;90.98
49104;BME280;34915;52.926;11.116;2022-07-23T01:04:59;101643.97;;;15.75;92.61
49104;BME280;34915;52.926;11.116;2022-07-23T01:07:24;101651.22;;;15.73;92.15
49104;BME280;34915;52.926;11.116;2022-07-23T01:09:51;101654.25;;;15.68;93.85
49104;BME280;34915;52.926;11.116;2022-07-23T01:12:17;101659.00;;;15.65;93.53
49104;BME280;34915;52.926;11.116;2022-07-23T01:14:43;101660.31;;;15.59;92.90
49104;BME280;34915;52.926;11.116;2022-07-23T01:17:09;101647.78;;;15.49;94.04
49104;BME280;34915;52.926;11.116;2022-07-23T01:19:34;101649.50;;;15.50;93.12
49104;BME280;34915;52.926;11.116;2022-07-23T01:22:02;101639.78;;;15.49;92.99
49104;BME280;34915;52.926;11.116;2022-07-23T01:24:28;101653.13;;;15.49;92.75
49104;BME280;34915;52.926;11.116;2022-07-23T01:26:54;101651.19;;;15.51;94.32
49104;BME280;34915;52.926;11.116;2022-07-23T01:29:19;101633.47;;;15.50;93.71
49104;BME280;34915;52.926;11.116;2022-07-23T01:31:46;101646.72;;;15.62;93.75
49104;BME280;34915;52.926;11.116;2022-07-23T01:34:12;101640.91;;;15.68;92.64
49104;BME280;34915;52.926;11.116;2022-07-23T01:36:38;101633.00;;;15.67;91.84
49104;BME280;34915;52.926;11.116;2022-07-23T01:39:05;101623.53;;;15.63;92.77
49104;BME280;34915;52.926;11.116;2022-07-23T01:41:31;101617.47;;;15.50;92.89
49104;BME280;34915;52.926;11.116;2022-07-23T01:43:57;101633.97;;;15.44;93.51
49104;BME280;34915;52.926;11.116;2022-07-23T01:46:22;101629.06;;;15.38;93.23
49104;BME280;34915;52.926;11.116;2022-07-23T01:48:48;101619.47;;;15.35;93.70
49104;BME280;34915;52.926;11.116;2022-07-23T01:51:16;101621.88;;;15.27;94.00
49104;BME280;34915;52.926;11.116;2022-07-23T01:53:42;101619.94;;;15.29;94.79
49104;BME280;34915;52.926;11.116;2022-07-23T01:56:07;101625.00;;;15.22;93.85
49104;BME280;34915;52.926;11.116;2022-07-23T01:58:33;101614.44;;;15.20;94.76
49104;BME280;34915;52.926;11.116;2022-07-23T02:00:59;101602.25;;;15.16;94.41
49104;BME280;34915;52.926;11.116;2022-07-23T02:03:24;101612.53;;;15.22;94.34
49104;BME280;34915;52.926;11.116;2022-07-23T02:05:50;101611.06;;;15.18;94.13
49104;BME280;34915;52.926;11.116;2022-07-23T02:08:16;101610.50;;;15.13;93.60
49104;BME280;34915;52.926;11.116;2022-07-23T02:10:42;101617.28;;;15.06;93.93
49104;BME280;34915;52.926;11.116;2022-07-23T02:13:07;101622.00;;;15.03;94.64
49104;BME280;34915;52.926;11.116;2022-07-23T02:15:33;101626.25;;;15.05;95.90
49104;BME280;34915;52.926;11.116;2022-07-23T02:17:59;101626.47;;;15.02;95.47
49104;BME280;34915;52.926;11.116;2022-07-23T02:20:25;101636.94;;;15.05;95.11
49104;BME280;34915;52.926;11.116;2022-07-23T02:22:50;101629.75;;;15.06;93.96
49104;BME280;34915;52.926;11.116;2022-07-23T02:25:16;101629.38;;;14.99;94.67
49104;BME280;34915;52.926;11.116;2022-07-23T02:27:42;101627.56;;;15.00;95.48
49104;BME280;34915;52.926;11.116;2022-07-23T02:30:07;101621.38;;;14.99;95.29
49104;BME280;34915;52.926;11.116;2022-07-23T02:32:34;101609.22;;;14.95;95.15
49104;BME280;34915;52.926;11.116;2022-07-23T02:35:00;101608.72;;;14.90;94.41
49104;BME280;34915;52.926;11.116;2022-07-23T02:37:26;101603.56;;;14.77;94.66
49104;BME280;34915;52.926;11.116;2022-07-23T02:39:52;101610.84;;;14.75;96.22
49104;BME280;34915;52.926;11.116;2022-07-23T02:42:17;101595.75;;;14.63;96.75
49104;BME280;34915;52.926;11.116;2022-07-23T02:44:43;101593.41;;;14.58;96.91
49104;BME280;34915;52.926;11.116;2022-07-23T02:47:09;101594.94;;;14.50;97.33
49104;BME280;34915;52.926;11.116;2022-07-23T02:49:34;101597.06;;;14.45;97.10
49104;BME280;34915;52.926;11.116;2022-07-23T02:52:00;101599.47;;;14.37;97.65
49104;BME280;34915;52.926;11.116;2022-07-23T02:54:28;101607.34;;;14.38;98.49
49104;BME280;34915;52.926;11.116;2022-07-23T02:56:53;101598.84;;;14.33;98.15
49104;BME280;34915;52.926;11.116;2022-07-23T02:59:19;101591.16;;;14.29;98.29
49104;BME280;34915;52.926;11.116;2022-07-23T03:01:45;101598.63;;;14.24;97.83
49104;BME280;34915;52.926;11.116;2022-07-23T03:04:11;101597.16;;;14.20;98.35
49104;BME280;34915;52.926;11.116;2022-07-23T03:06:39;101595.69;;;14.16;98.62
49104;BME280;34915;52.926;11.116;2022-07-23T03:09:06;101593.84;;;14.04;98.91
49104;BME280;34915;52.926;11.116;2022-07-23T03:11:32;101606.38;;;13.91;99.18
49104;BME280;34915;52.926;11.116;2022-07-23T03:13:57;101604.66;;;13.90;99.32
49104;BME280;34915;52.926;11.116;2022-07-23T03:16:23;101616.59;;;13.97;99.70
49104;BME280;34915;52.926;11.116;2022-07-23T03:18:48;101601.94;;;14.03;99.37
49104;BME280;34915;52.926;11.116;2022-07-23T03:21:16;101605.47;;;14.03;98.80
49104;BME280;34915;52.926;11.116;2022-07-23T03:23:42;101595.94;;;13.88;98.47
49104;BME280;34915;52.926;11.116;2022-07-23T03:26:08;101598.69;;;13.75;98.72
49104;BME280;34915;52.926;11.116;2022-07-23T03:28:33;101613.84;;;13.74;98.92
49104;BME280;34915;52.926;11.116;2022-07-23T03:30:59;101613.16;;;13.71;100.00
49104;BME280;34915;52.926;11.116;2022-07-23T03:33:25;101620.00;;;13.75;99.43
49104;BME280;34915;52.926;11.116;2022-07-23T03:35:50;101620.00;;;13.75;99.04
49104;BME280;34915;52.926;11.116;2022-07-23T03:38:16;101621.72;;;13.76;99.29
49104;BME280;34915;52.926;11.116;2022-07-23T03:40:42;101617.44;;;13.73;98.93
49104;BME280;34915;52.926;11.116;2022-07-23T03:43:08;101613.16;;;13.71;98.77
49104;BME280;34915;52.926;11.116;2022-07-23T03:45:33;101625.75;;;13.69;98.89
49104;BME280;34915;52.926;11.116;2022-07-23T03:47:59;101629.16;;;13.71;99.07
49104;BME280;34915;52.926;11.116;2022-07-23T03:50:25;101621.94;;;13.73;99.53
49104;BME280;34915;52.926;11.116;2022-07-23T03:52:51;101620.41;;;13.81;99.96
49104;BME280;34915;52.926;11.116;2022-07-23T03:55:17;101631.72;;;13.84;98.72
49104;BME280;34915;52.926;11.116;2022-07-23T03:57:43;101625.41;;;13.85;99.18
49104;BME280;34915;52.926;11.116;2022-07-23T04:00:10;101621.06;;;13.84;99.14
49104;BME280;34915;52.926;11.116;2022-07-23T04:02:37;101624.03;;;13.92;100.00
49104;BME280;34915;52.926;11.116;2022-07-23T04:05:03;101627.84;;;14.01;98.55
49104;BME280;34915;52.926;11.116;2022-07-23T04:07:30;101618.16;;;14.00;98.73
49104;BME280;34915;52.926;11.116;2022-07-23T04:09:56;101635.34;;;14.08;99.13
49104;BME280;34915;52.926;11.116;2022-07-23T04:12:23;101626.41;;;14.09;98.92
49104;BME280;34915;52.926;11.116;2022-07-23T04:14:49;101636.63;;;14.15;97.88
49104;BME280;34915;52.926;11.116;2022-07-23T04:17:14;101628.91;;;14.23;97.82
49104;BME280;34915;52.926;11.116;2022-07-23T04:19:40;101621.13;;;14.20;98.73
49104;BME280;34915;52.926;11.116;2022-07-23T04:22:10;101625.28;;;14.24;98.40
49104;BME280;34915;52.926;11.116;2022-07-23T04:24:36;101622.75;;;14.23;99.63
49104;BME280;34915;52.926;11.116;2022-07-23T04:27:02;101625.78;;;14.29;99.78
49104;BME280;34915;52.926;11.116;2022-07-23T04:29:28;101630.19;;;14.30;99.81
49104;BME280;34915;52.926;11.116;2022-07-23T04:31:54;101616.84;;;14.30;99.52
49104;BME280;34915;52.926;11.116;2022-07-23T04:34:20;101606.31;;;14.28;100.00
49104;BME280;34915;52.926;11.116;2022-07-23T04:36:46;101616.94;;;14.41;99.90
49104;BME280;34915;52.926;11.116;2022-07-23T04:39:11;101620.94;;;14.46;99.04
49104;BME280;34915;52.926;11.116;2022-07-23T04:41:37;101610.94;;;14.50;98.79
49104;BME280;34915;52.926;11.116;2022-07-23T04:44:03;101609.00;;;14.52;98.17
49104;BME280;34915;52.926;11.116;2022-07-23T04:46:29;101604.91;;;14.59;98.93
49104;BME280;34915;52.926;11.116;2022-07-23T04:48:54;101616.84;;;14.66;98.33
49104;BME280;34915;52.926;11.116;2022-07-23T04:51:20;101608.63;;;14.69;97.98
49104;BME280;34915;52.926;11.116;2022-07-23T04:53:46;101614.69;;;14.71;99.12
49104;BME280;34915;52.926;11.116;2022-07-23T04:56:11;101628.75;;;14.73;99.41
49104;BME280;34915;52.926;11.116;2022-07-23T04:58:39;101638.75;;;14.81;98.63
49104;BME280;34915;52.926;11.116;2022-07-23T05:01:05;101641.44;;;14.81;98.67
49104;BME280;34915;52.926;11.116;2022-07-23T05:03:30;101630.22;;;14.77;98.38
49104;BME280;34915;52.926;11.116;2022-07-23T05:05:56;101640.91;;;14.77;98.57
49104;BME280;34915;52.926;11.116;2022-07-23T05:08:22;101644.53;;;14.76;99.59
49104;BME280;34915;52.926;11.116;2022-07-23T05:10:48;101636.63;;;14.74;99.38
49104;BME280;34915;52.926;11.116;2022-07-23T05:13:17;101653.06;;;14.80;98.72
49104;BME280;34915;52.926;11.116;2022-07-23T05:15:43;101647.50;;;14.83;99.88
49104;BME280;34915;52.926;11.116;2022-07-23T05:18:09;101636.59;;;14.86;100.00
49104;BME280;34915;52.926;11.116;2022-07-23T05:20:35;101629.09;;;14.91;99.91
49104;BME280;34915;52.926;11.116;2022-07-23T05:23:01;101623.28;;;14.97;99.86
49104;BME280;34915;52.926;11.116;2022-07-23T05:25:27;101629.09;;;14.91;100.00
49104;BME280;34915;52.926;11.116;2022-07-23T05:27:52;101643.41;;;14.90;100.00
49104;BME280;34915;52.926;11.116;2022-07-23T05:30:18;101651.53;;;14.89;100.00
49104;BME280;34915;52.926;11.116;2022-07-23T05:32:46;101642.19;;;14.94;100.00
49104;BME280;34915;52.926;11.116;2022-07-23T05:35:12;101636.13;;;14.92;100.00
49104;BME280;34915;52.926;11.116;2022-07-23T05:37:37;101645.63;;;14.96;100.00
49104;BME280;34915;52.926;11.116;2022-07-23T05:40:07;101648.06;;;14.99;100.00
49104;BME280;34915;52.926;11.116;2022-07-23T05:42:34;101638.34;;;14.98;100.00
49104;BME280;34915;52.926;11.116;2022-07-23T05:45:00;101640.78;;;15.01;100.00
49104;BME280;34915;52.926;11.116;2022-07-23T05:47:26;101644.22;;;15.03;100.00
49104;BME280;34915;52.926;11.116;2022-07-23T05:49:51;101648.91;;;15.00;100.00
49104;BME280;34915;52.926;11.116;2022-07-23T05:52:17;101652.34;;;15.02;100.00
49104;BME280;34915;52.926;11.116;2022-07-23T05:54:43;101648.06;;;14.99;100.00
49104;BME280;34915;52.926;11.116;2022-07-23T05:57:08;101658.28;;;15.05;100.00
49104;BME280;34915;52.926;11.116;2022-07-23T05:59:34;101668.97;;;15.05;100.00
49104;BME280;34915;52.926;11.116;2022-07-23T06:01:59;101661.91;;;15.04;100.00
49104;BME280;34915;52.926;11.116;2022-07-23T06:04:25;101665.56;;;15.03;100.00
49104;BME280;34915;52.926;11.116;2022-07-23T06:06:51;101663.16;;;15.11;100.00
49104;BME280;34915;52.926;11.116;2022-07-23T06:09:16;101648.19;;;15.21;100.00
49104;BME280;34915;52.926;11.116;2022-07-23T06:11:42;101656.47;;;15.29;100.00
49104;BME280;34915;52.926;11.116;2022-07-23T06:14:08;101646.31;;;15.34;97.77
49104;BME280;34915;52.926;11.116;2022-07-23T06:16:33;101648.03;;;15.46;99.14
49104;BME280;34915;52.926;11.116;2022-07-23T06:18:59;101644.91;;;15.63;98.50
49104;BME280;34915;52.926;11.116;2022-07-23T06:21:25;101642.50;;;15.71;98.02
49104;BME280;34915;52.926;11.116;2022-07-23T06:23:50;101650.91;;;15.88;96.37
49104;BME280;34915;52.926;11.116;2022-07-23T06:26:16;101652.25;;;16.04;96.81
49104;BME280;34915;52.926;11.116;2022-07-23T06:28:41;101651.28;;;16.16;95.31
49104;BME280;34915;52.926;11.116;2022-07-23T06:31:07;101638.66;;;16.29;94.13
49104;BME280;34915;52.926;11.116;2022-07-23T06:33:33;101649.72;;;16.25;92.65
49104;BME280;34915;52.926;11.116;2022-07-23T06:35:59;101632.84;;;16.24;95.84
49104;BME280;34915;52.926;11.116;2022-07-23T06:38:25;101648.41;;;16.30;95.48
49104;BME280;34915;52.926;11.116;2022-07-23T06:40:51;101640.09;;;16.22;93.30
49104;BME280;34915;52.926;11.116;2022-07-23T06:43:16;101653.50;;;16.33;92.30
49104;BME280;34915;52.926;11.116;2022-07-23T06:45:42;101649.47;;;16.49;89.30
49104;BME280;34915;52.926;11.116;2022-07-23T06:48:07;101648.13;;;16.55;88.56
49104;BME280;34915;52.926;11.116;2022-07-23T06:50:33;101652.72;;;16.64;89.87
49104;BME280;34915;52.926;11.116;2022-07-23T06:53:00;101645.16;;;16.69;89.47
49104;BME280;34915;52.926;11.116;2022-07-23T06:55:26;101646.56;;;16.94;89.48
49104;BME280;34915;52.926;11.116;2022-07-23T06:57:52;101656.00;;;17.09;86.64
49104;BME280;34915;52.926;11.116;2022-07-23T07:00:17;101651.28;;;17.02;85.06
49104;BME280;34915;52.926;11.116;2022-07-23T07:02:43;101654.31;;;17.08;86.47
49104;BME280;34915;52.926;11.116;2022-07-23T07:05:11;101638.69;;;17.24;84.37
49104;BME280;34915;52.926;11.116;2022-07-23T07:07:36;101637.66;;;17.36;85.14
49104;BME280;34915;52.926;11.116;2022-07-23T07:10:05;101640.25;;;17.47;82.45
49104;BME280;34915;52.926;11.116;2022-07-23T07:12:31;101640.59;;;17.74;82.24
49104;BME280;34915;52.926;11.116;2022-07-23T07:14:57;101645.06;;;17.93;79.82
49104;BME280;34915;52.926;11.116;2022-07-23T07:17:22;101639.81;;;18.12;77.45
49104;BME280;34915;52.926;11.116;2022-07-23T07:19:48;101634.94;;;18.17;76.20
49104;BME280;34915;52.926;11.116;2022-07-23T07:22:14;101636.69;;;18.37;74.46
49104;BME280;34915;52.926;11.116;2022-07-23T07:24:39;101641.09;;;18.38;74.72
49104;BME280;34915;52.926;11.116;2022-07-23T07:27:05;101641.69;;;18.51;75.92
49104;BME280;34915;52.926;11.116;2022-07-23T07:29:31;101638.88;;;18.62;73.65
49104;BME280;34915;52.926;11.116;2022-07-23T07:31:56;101636.97;;;18.82;73.23
49104;BME280;34915;52.926;11.116;2022-07-23T07:34:22;101631.91;;;18.98;73.44
49104;BME280;34915;52.926;11.116;2022-07-23T07:36:47;101635.16;;;19.11;71.08
49104;BME280;34915;52.926;11.116;2022-07-23T07:39:13;101636.47;;;19.07;71.38
49104;BME280;34915;52.926;11.116;2022-07-23T07:41:39;101636.75;;;19.23;70.56
49104;BME280;34915;52.926;11.116;2022-07-23T07:44:05;101629.38;;;19.25;70.83
49104;BME280;34915;52.926;11.116;2022-07-23T07:46:30;101631.22;;;19.34;70.87
49104;BME280;34915;52.926;11.116;2022-07-23T07:48:56;101630.66;;;19.21;69.76
49104;BME280;34915;52.926;11.116;2022-07-23T07:51:21;101638.09;;;18.99;70.39
49104;BME280;34915;52.926;11.116;2022-07-23T07:53:47;101634.75;;;19.06;69.94
49104;BME280;34915;52.926;11.116;2022-07-23T07:56:13;101633.63;;;19.18;71.09
49104;BME280;34915;52.926;11.116;2022-07-23T07:58:38;101643.50;;;19.46;69.25
49104;BME280;34915;52.926;11.116;2022-07-23T08:01:04;101652.72;;;19.62;68.09
49104;BME280;34915;52.926;11.116;2022-07-23T08:03:30;101654.81;;;19.68;68.67
49104;BME280;34915;52.926;11.116;2022-07-23T08:05:55;101645.72;;;19.78;68.82
49104;BME280;34915;52.926;11.116;2022-07-23T08:08:21;101645.28;;;19.74;68.87
49104;BME280;34915;52.926;11.116;2022-07-23T08:10:46;101651.41;;;19.76;68.13
49104;BME280;34915;52.926;11.116;2022-07-23T08:13:13;101661.03;;;19.69;68.34
49104;BME280;34915;52.926;11.116;2022-07-23T08:15:40;101652.00;;;19.51;68.17
49104;BME280;34915;52.926;11.116;2022-07-23T08:18:06;101664.75;;;19.39;67.82
49104;BME280;34915;52.926;11.116;2022-07-23T08:20:32;101657.69;;;19.29;67.31
49104;BME280;34915;52.926;11.116;2022-07-23T08:23:04;101655.69;;;19.50;67.65
49104;BME280;34915;52.926;11.116;2022-07-23T08:25:35;101659.06;;;19.52;68.20
49104;BME280;34915;52.926;11.116;2022-07-23T08:28:02;101659.06;;;19.52;69.48
49104;BME280;34915;52.926;11.116;2022-07-23T08:30:29;101664.59;;;19.60;68.06
49104;BME280;34915;52.926;11.116;2022-07-23T08:35:32;101654.66;;;19.88;67.36
49104;BME280;34915;52.926;11.116;2022-07-23T08:37:59;101650.53;;;19.94;66.00
49104;BME280;34915;52.926;11.116;2022-07-23T08:40:29;101647.03;;;20.20;64.18
49104;BME280;34915;52.926;11.116;2022-07-23T08:42:56;101662.59;;;20.26;64.30
49104;BME280;34915;52.926;11.116;2022-07-23T08:45:23;101660.69;;;20.09;63.88
49104;BME280;34915;52.926;11.116;2022-07-23T08:47:54;101657.00;;;20.10;64.26
49104;BME280;34915;52.926;11.116;2022-07-23T08:50:21;101661.44;;;20.38;63.08
49104;BME280;34915;52.926;11.116;2022-07-23T08:52:51;101660.31;;;20.31;62.65
49104;BME280;34915;52.926;11.116;2022-07-23T08:55:22;101660.91;;;20.25;61.81
49104;BME280;34915;52.926;11.116;2022-07-23T08:57:49;101669.19;;;20.05;63.21
49104;BME280;34915;52.926;11.116;2022-07-23T09:00:15;101670.63;;;19.80;63.08
49104;BME280;34915;52.926;11.116;2022-07-23T09:02:42;101669.78;;;19.89;63.55
49104;BME280;34915;52.926;11.116;2022-07-23T09:05:10;101663.06;;;20.12;62.65
49104;BME280;34915;52.926;11.116;2022-07-23T09:07:37;101655.75;;;20.41;60.88
49104;BME280;34915;52.926;11.116;2022-07-23T09:10:09;101653.34;;;20.65;60.77
49104;BME280;34915;52.926;11.116;2022-07-23T09:12:37;101646.28;;;20.90;60.60
49104;BME280;34915;52.926;11.116;2022-07-23T09:15:07;101650.75;;;21.17;60.32
49104;BME280;34915;52.926;11.116;2022-07-23T09:17:40;101644.06;;;21.38;58.17
49104;BME280;34915;52.926;11.116;2022-07-23T09:20:16;101646.53;;;21.49;58.47
49104;BME280;34915;52.926;11.116;2022-07-23T09:22:45;101654.13;;;21.36;56.56
49104;BME280;34915;52.926;11.116;2022-07-23T09:25:16;101655.31;;;21.16;57.53
49104;BME280;34915;52.926;11.116;2022-07-23T09:30:14;101653.88;;;20.77;56.64
49104;BME280;34915;52.926;11.116;2022-07-23T09:32:40;101666.97;;;20.73;57.01
49104;BME280;34915;52.926;11.116;2022-07-23T09:35:07;101660.16;;;20.69;56.95
49104;BME280;34915;52.926;11.116;2022-07-23T09:37:35;101653.19;;;20.93;57.19
49104;BME280;34915;52.926;11.116;2022-07-23T09:40:10;101650.91;;;20.98;56.71
49104;BME280;34915;52.926;11.116;2022-07-23T09:42:54;101652.16;;;21.21;57.30
49104;BME280;34915;52.926;11.116;2022-07-23T09:45:20;101636.81;;;21.21;55.50
49104;BME280;34915;52.926;11.116;2022-07-23T09:47:46;101656.81;;;21.36;55.84
49104;BME280;34915;52.926;11.116;2022-07-23T09:50:12;101648.81;;;21.44;54.24
49104;BME280;34915;52.926;11.116;2022-07-23T09:52:44;101648.69;;;21.63;53.81
49104;BME280;34915;52.926;11.116;2022-07-23T09:55:12;101647.59;;;21.56;54.72
49104;BME280;34915;52.926;11.116;2022-07-23T09:57:41;101650.66;;;21.61;54.42
49104;BME280;34915;52.926;11.116;2022-07-23T10:00:09;101640.63;;;21.71;55.03
49104;BME280;34915;52.926;11.116;2022-07-23T10:02:39;101646.22;;;21.52;55.57
49104;BME280;34915;52.926;11.116;2022-07-23T10:05:06;101644.13;;;21.28;56.96
49104;BME280;34915;52.926;11.116;2022-07-23T10:07:36;101656.38;;;21.23;57.88
49104;BME280;34915;52.926;11.116;2022-07-23T10:10:03;101650.59;;;21.01;57.27
49104;BME280;34915;52.926;11.116;2022-07-23T10:12:29;101648.97;;;20.90;57.85
49104;BME280;34915;52.926;11.116;2022-07-23T10:15:04;101640.47;;;20.85;56.45
49104;BME280;34915;52.926;11.116;2022-07-23T10:17:32;101644.53;;;21.16;56.48
49104;BME280;34915;52.926;11.116;2022-07-23T10:19:57;101645.22;;;21.53;54.57
49104;BME280;34915;52.926;11.116;2022-07-23T10:22:30;101654.59;;;21.66;53.24
49104;BME280;34915;52.926;11.116;2022-07-23T10:31:29;101647.59;;;21.21;55.97
49104;BME280;34915;52.926;11.116;2022-07-23T10:36:59;101647.84;;;21.87;53.94
49104;BME280;34915;52.926;11.116;2022-07-23T10:39:33;101648.88;;;21.94;55.53
49104;BME280;34915;52.926;11.116;2022-07-23T10:44:43;101642.25;;;22.06;52.79
49104;BME280;34915;52.926;11.116;2022-07-23T10:47:10;101646.69;;;22.15;53.03
49104;BME280;34915;52.926;11.116;2022-07-23T10:50:25;101651.03;;;22.16;52.99
49104;BME280;34915;52.926;11.116;2022-07-23T10:57:56;101657.00;;;21.52;54.03
49104;BME280;34915;52.926;11.116;2022-07-23T11:00:23;101650.34;;;21.29;55.06
49104;BME280;34915;52.926;11.116;2022-07-23T11:02:54;101652.06;;;21.30;55.49
49104;BME280;34915;52.926;11.116;2022-07-23T11:05:22;101647.06;;;21.52;55.30
49104;BME280;34915;52.926;11.116;2022-07-23T11:10:34;101651.34;;;22.05;53.79
49104;BME280;34915;52.926;11.116;2022-07-23T11:13:29;101651.38;;;22.13;52.27
49104;BME280;34915;52.926;11.116;2022-07-23T11:34:33;101651.00;;;22.33;50.31
49104;BME280;34915;52.926;11.116;2022-07-23T11:37:00;101649.44;;;22.23;51.20
49104;BME280;34915;52.926;11.116;2022-07-23T11:39:28;101658.06;;;22.01;52.34
49104;BME280;34915;52.926;11.116;2022-07-23T11:41:55;101673.13;;;21.86;53.02
49104;BME280;34915;52.926;11.116;2022-07-23T11:46:58;101671.13;;;21.88;52.57
49104;BME280;34915;52.926;11.116;2022-07-23T11:49:24;101660.97;;;21.82;52.26
49104;BME280;34915;52.926;11.116;2022-07-23T11:52:10;101664.38;;;21.84;52.56
49104;BME280;34915;52.926;11.116;2022-07-23T11:54:48;101662.53;;;21.93;51.15
49104;BME280;34915;52.926;11.116;2022-07-23T11:57:14;101648.03;;;22.19;52.30
49104;BME280;34915;52.926;11.116;2022-07-23T11:59:40;101651.31;;;22.56;49.24
49104;BME280;34915;52.926;11.116;2022-07-23T12:02:06;101663.91;;;22.47;49.01
49104;BME280;34915;52.926;11.116;2022-07-23T12:04:43;101651.56;;;22.37;48.33
49104;BME280;34915;52.926;11.116;2022-07-23T12:09:55;101649.84;;;22.77;47.53
49104;BME280;34915;52.926;11.116;2022-07-23T12:12:21;101647.34;;;22.91;47.24
49104;BME280;34915;52.926;11.116;2022-07-23T12:14:53;101663.50;;;22.68;49.00
49104;BME280;34915;52.926;11.116;2022-07-23T12:17:19;101652.78;;;22.50;51.13
49104;BME280;34915;52.926;11.116;2022-07-23T12:19:46;101654.94;;;22.39;50.34
49104;BME280;34915;52.926;11.116;2022-07-23T12:22:12;101644.13;;;22.39;51.10
49104;BME280;34915;52.926;11.116;2022-07-23T12:25:00;101655.63;;;22.90;49.52
49104;BME280;34915;52.926;11.116;2022-07-23T12:27:26;101650.75;;;22.93;48.09
49104;BME280;34915;52.926;11.116;2022-07-23T12:29:52;101660.81;;;22.76;48.03
49104;BME280;34915;52.926;11.116;2022-07-23T12:32:23;101642.88;;;22.59;48.02
49104;BME280;34915;52.926;11.116;2022-07-23T12:34:53;101658.28;;;22.41;49.53
49104;BME280;34915;52.926;11.116;2022-07-23T12:37:28;101649.88;;;22.44;50.56
49104;BME280;34915;52.926;11.116;2022-07-23T12:39:54;101655.00;;;22.63;49.25
49104;BME280;34915;52.926;11.116;2022-07-23T12:42:20;101646.16;;;22.45;49.73
49104;BME280;34915;52.926;11.116;2022-07-23T12:45:06;101645.56;;;22.59;50.21
49104;BME280;34915;52.926;11.116;2022-07-23T12:47:57;101651.88;;;22.75;49.36
49104;BME280;34915;52.926;11.116;2022-07-23T12:55:48;101659.59;;;23.11;48.36
49104;BME280;34915;52.926;11.116;2022-07-23T12:58:16;101660.53;;;22.86;47.37
49104;BME280;34915;52.926;11.116;2022-07-23T13:00:57;101656.47;;;22.90;48.22
49104;BME280;34915;52.926;11.116;2022-07-23T13:06:00;101670.63;;;23.26;46.78
49104;BME280;34915;52.926;11.116;2022-07-23T13:08:29;101676.69;;;23.20;47.00
49104;BME280;34915;52.926;11.116;2022-07-23T13:10:56;101668.69;;;22.94;48.14
49104;BME280;34915;52.926;11.116;2022-07-23T13:13:28;101673.09;;;22.95;49.17
49104;BME280;34915;52.926;11.116;2022-07-23T13:15:56;101673.13;;;23.19;47.20
49104;BME280;34915;52.926;11.116;2022-07-23T13:18:22;101666.03;;;23.18;47.81
49104;BME280;34915;52.926;11.116;2022-07-23T13:20:48;101684.31;;;23.48;47.05
49104;BME280;34915;52.926;11.116;2022-07-23T13:23:14;101674.50;;;23.31;45.54
49104;BME280;34915;52.926;11.116;2022-07-23T13:25:41;101676.88;;;23.50;46.43
49104;BME280;34915;52.926;11.116;2022-07-23T13:28:06;101677.88;;;23.41;46.64
49104;BME280;34915;52.926;11.116;2022-07-23T13:30:32;101686.03;;;23.49;45.97
49104;BME280;34915;52.926;11.116;2022-07-23T13:32:59;101685.69;;;23.52;44.16
49104;BME280;34915;52.926;11.116;2022-07-23T13:35:25;101689.41;;;23.51;44.20
49104;BME280;34915;52.926;11.116;2022-07-23T13:37:50;101674.88;;;23.52;43.60